Weather at Eilat Airport [CLOSED]

Public forecast

Using degrees Celsius for public forecast. Weather courtesy of forecast.io.

Closest aviation weather report (METAR) to Eilat Airport

Closest report is Aqaba King Hussein International Airport, 4.4 nm (8.1 km) NE.

2024/07/20 15:00 (retrieved 12 minutes ago)

OJAQ 201500Z 36007KT 6000 NSC 42/06 Q1001 NOSIG

Closest aviation forecast (TAF) to Eilat Airport

Closest forecast is Aqaba King Hussein International Airport, 4.4 nm (8.1 km) NE.

2024/07/20 12:12 (retrieved 3 hours ago)

TAF OJAQ 201100Z 2012/2118 36008KT CAVOK PROB30 2013/2017 35016KT